createdAt,value
2017-01-27T00:00:05.745Z,26.4
2017-01-27T00:02:08.310Z,26.5
2017-01-27T00:04:05.048Z,26.6
2017-01-27T00:06:08.305Z,26.4
2017-01-27T00:08:05.144Z,26.6
2017-01-27T00:10:07.250Z,26.6
2017-01-27T00:12:05.638Z,26.5
2017-01-27T00:14:05.880Z,26.6
2017-01-27T00:16:05.565Z,26.4
2017-01-27T00:18:06.055Z,26.6
2017-01-27T00:20:06.125Z,26.6
2017-01-27T00:22:05.823Z,26.4
2017-01-27T00:24:05.553Z,26.4
2017-01-27T00:26:11.163Z,26.5
2017-01-27T00:28:05.834Z,26.6
2017-01-27T00:30:05.547Z,26.6
2017-01-27T00:32:05.647Z,26.6
2017-01-27T00:34:05.353Z,26.6
2017-01-27T00:36:07.619Z,26.6
2017-01-27T00:38:08.305Z,26.7
2017-01-27T00:40:05.572Z,26.7
2017-01-27T00:42:08.159Z,26.6
2017-01-27T00:44:05.498Z,26.5
2017-01-27T00:46:05.333Z,26.6
2017-01-27T00:48:07.554Z,26.6
2017-01-27T00:50:05.372Z,26.6
2017-01-27T00:52:05.948Z,26.6
2017-01-27T00:54:05.858Z,26.6
2017-01-27T00:56:05.830Z,26.6
2017-01-27T00:58:05.797Z,26.6
2017-01-27T01:00:05.545Z,26.4
2017-01-27T01:02:08.191Z,26.6
2017-01-27T01:04:05.956Z,26.6
2017-01-27T01:06:08.170Z,26.6
2017-01-27T01:08:06.051Z,26.6
2017-01-27T01:10:05.792Z,26.6
2017-01-27T01:12:05.096Z,26.6
2017-01-27T01:14:06.331Z,26.6
2017-01-27T01:16:05.561Z,26.6
2017-01-27T01:18:05.044Z,26.6
2017-01-27T01:20:05.553Z,26.6
2017-01-27T01:22:07.842Z,26.6
2017-01-27T01:24:05.084Z,26.6
2017-01-27T01:26:05.999Z,26.6
2017-01-27T01:28:08.344Z,26.6
2017-01-27T01:30:05.871Z,26.7
2017-01-27T01:32:05.212Z,26.6
2017-01-27T01:34:05.874Z,26.6
2017-01-27T01:36:05.630Z,26.6
2017-01-27T01:38:05.740Z,26.6
2017-01-27T01:40:05.557Z,26.6
2017-01-27T01:42:08.380Z,26.6
2017-01-27T01:44:05.400Z,26.6
2017-01-27T01:46:05.492Z,26.6
2017-01-27T01:48:07.729Z,26.6
2017-01-27T01:50:05.718Z,26.6
2017-01-27T01:52:05.961Z,26.6
2017-01-27T01:54:08.170Z,26.6
2017-01-27T01:56:06.209Z,26.6
2017-01-27T01:58:05.956Z,26.6
2017-01-27T02:00:05.666Z,26.6
2017-01-27T02:02:05.744Z,26.6
2017-01-27T02:04:05.510Z,26.6
2017-01-27T02:06:07.760Z,26.6
2017-01-27T02:08:05.592Z,26.6
2017-01-27T02:10:05.829Z,26.6
2017-01-27T02:12:05.551Z,26.6
2017-01-27T02:14:05.408Z,26.6
2017-01-27T02:16:08.188Z,26.6
2017-01-27T02:18:06.216Z,26.6
2017-01-27T02:20:06.220Z,26.6
2017-01-27T02:22:06.205Z,26.6
2017-01-27T02:24:08.436Z,26.6
2017-01-27T02:26:05.477Z,26.6
2017-01-27T02:28:05.183Z,26.5
2017-01-27T02:30:05.424Z,26.5
2017-01-27T02:32:06.001Z,26.6
2017-01-27T02:34:05.871Z,26.6
2017-01-27T02:36:05.664Z,26.5
2017-01-27T02:38:05.733Z,26.5
2017-01-27T02:40:06.024Z,26.6
2017-01-27T02:42:08.354Z,26.6
2017-01-27T02:44:07.895Z,26.6
2017-01-27T02:46:05.144Z,26.6
2017-01-27T02:48:05.411Z,26.5
2017-01-27T02:50:05.388Z,26.6
2017-01-27T02:52:05.108Z,26.6
2017-01-27T02:54:05.839Z,26.6
2017-01-27T02:56:05.719Z,26.5
2017-01-27T02:58:07.984Z,26.5
2017-01-27T03:00:08.257Z,26.6
2017-01-27T03:02:08.938Z,26.5
2017-01-27T03:04:05.711Z,26.5
2017-01-27T03:06:05.888Z,26.6
2017-01-27T03:08:10.482Z,26.5
2017-01-27T03:10:05.198Z,26.5
2017-01-27T03:12:05.987Z,26.5
2017-01-27T03:14:05.906Z,26.5
2017-01-27T03:16:05.639Z,26.5
2017-01-27T03:18:05.535Z,26.6
2017-01-27T03:20:06.105Z,26.5
2017-01-27T03:22:06.081Z,26.5
2017-01-27T03:24:05.839Z,26.6
2017-01-27T03:26:05.206Z,26.6
2017-01-27T03:28:05.480Z,26.5
2017-01-27T03:30:05.194Z,26.6
2017-01-27T03:32:10.936Z,26.5
2017-01-27T03:34:05.716Z,26.5
2017-01-27T03:36:05.491Z,26.5
2017-01-27T03:38:05.591Z,26.7
2017-01-27T03:40:05.300Z,26.8
2017-01-27T03:42:05.073Z,26.6
2017-01-27T03:44:06.054Z,26.7
2017-01-27T03:46:05.282Z,26.8
2017-01-27T03:48:05.607Z,26.8
2017-01-27T03:50:09.116Z,26.9
2017-01-27T03:52:05.128Z,26.8
2017-01-27T03:54:05.933Z,26.9
2017-01-27T03:56:08.309Z,26.9
2017-01-27T03:58:05.027Z,26.9
2017-01-27T04:00:05.739Z,27
2017-01-27T04:02:08.175Z,27.1
2017-01-27T04:04:08.427Z,27.2
2017-01-27T04:06:05.181Z,27.2
2017-01-27T04:08:06.205Z,26.8
2017-01-27T04:10:05.751Z,26.8
2017-01-27T04:12:08.017Z,26.8
2017-01-27T04:14:06.065Z,26.8
2017-01-27T04:16:05.798Z,26.8
2017-01-27T04:18:05.356Z,26.9
2017-01-27T04:20:05.467Z,27.2
2017-01-27T04:22:05.220Z,27.1
2017-01-27T04:24:06.026Z,26.8
2017-01-27T04:26:06.169Z,26.8
2017-01-27T04:28:08.138Z,26.8
2017-01-27T04:30:05.376Z,26.8
2017-01-27T04:32:05.334Z,26.8
2017-01-27T04:34:05.045Z,26.8
2017-01-27T04:36:07.890Z,26.8
2017-01-27T04:38:06.012Z,26.8
2017-01-27T04:40:05.728Z,26.8
2017-01-27T04:42:05.800Z,26.8
2017-01-27T04:44:08.410Z,26.8
2017-01-27T04:46:05.083Z,26.8
2017-01-27T04:48:05.764Z,26.8
2017-01-27T04:50:08.281Z,26.8
2017-01-27T04:52:05.988Z,26.8
2017-01-27T04:54:05.736Z,26.8
2017-01-27T04:56:05.769Z,26.8
2017-01-27T04:58:05.857Z,26.8
2017-01-27T05:00:08.079Z,26.8
2017-01-27T05:02:06.161Z,26.8
2017-01-27T05:04:06.060Z,26.8
2017-01-27T05:06:10.456Z,26.8
2017-01-27T05:08:05.998Z,26.8
2017-01-27T05:10:05.728Z,26.6
2017-01-27T05:12:05.935Z,26.8
2017-01-27T05:14:06.006Z,26.8
2017-01-27T05:16:05.201Z,26.8
2017-01-27T05:18:05.106Z,26.8
2017-01-27T05:20:05.655Z,26.8
2017-01-27T05:22:05.361Z,26.6
2017-01-27T05:24:05.714Z,26.6
2017-01-27T05:26:05.411Z,26.6
2017-01-27T05:28:07.703Z,26.6
2017-01-27T05:30:05.658Z,26.6
2017-01-27T05:32:05.830Z,26.7
2017-01-27T05:34:05.525Z,26.6
2017-01-27T05:36:05.291Z,26.6
2017-01-27T05:38:08.867Z,26.6
2017-01-27T05:40:05.111Z,26.6
2017-01-27T05:42:05.802Z,26.6
2017-01-27T05:44:07.770Z,26.6
2017-01-27T05:46:06.272Z,26.6
2017-01-27T05:48:05.985Z,26.6
2017-01-27T05:50:11.231Z,26.6
2017-01-27T05:52:05.892Z,26.6
2017-01-27T05:54:05.120Z,26.6
2017-01-27T05:56:05.953Z,26.6
2017-01-27T05:58:05.666Z,26.6
2017-01-27T06:00:05.540Z,26.6
2017-01-27T06:02:05.969Z,26.6
2017-01-27T06:04:05.711Z,26.6
2017-01-27T06:06:05.993Z,26.6
2017-01-27T06:08:05.758Z,26.6
2017-01-27T06:10:05.472Z,26.6
2017-01-27T06:12:05.173Z,26.6
2017-01-27T06:14:05.646Z,26.6
2017-01-27T06:16:05.375Z,26.6
2017-01-27T06:18:05.541Z,26.6
2017-01-27T06:20:05.403Z,26.6
2017-01-27T06:22:06.498Z,26.5
2017-01-27T06:24:05.207Z,26.6
2017-01-27T06:26:06.295Z,26.6
2017-01-27T06:28:06.009Z,26.6
2017-01-27T06:30:05.725Z,26.6
2017-01-27T06:32:06.359Z,26.6
2017-01-27T06:34:12.950Z,26.6
2017-01-27T06:36:05.670Z,26.6
2017-01-27T06:38:05.490Z,26.5
2017-01-27T06:40:05.295Z,26.6
2017-01-27T06:42:07.547Z,26.5
2017-01-27T06:44:05.528Z,26.5
2017-01-27T06:46:05.335Z,26.6
2017-01-27T06:48:10.109Z,26.6
2017-01-27T06:50:06.090Z,26.6
2017-01-27T06:52:05.939Z,26.6
2017-01-27T06:54:05.787Z,26.6
2017-01-27T06:56:06.360Z,26.6
2017-01-27T06:58:05.691Z,26.6
2017-01-27T07:00:05.420Z,26.5
2017-01-27T07:02:05.281Z,26.6
2017-01-27T07:04:08.522Z,26.6
2017-01-27T07:06:08.012Z,26.6
2017-01-27T07:08:06.039Z,26.5
2017-01-27T07:10:10.941Z,26.6
2017-01-27T07:12:05.639Z,26.5
2017-01-27T07:14:05.469Z,26.6
2017-01-27T07:16:05.176Z,26.6
2017-01-27T07:18:05.065Z,26.5
2017-01-27T07:20:06.075Z,26.5
2017-01-27T07:22:06.175Z,26.5
2017-01-27T07:24:05.868Z,26.5
2017-01-27T07:26:06.001Z,26.6
2017-01-27T07:28:05.720Z,26.5
2017-01-27T07:30:05.435Z,26.6
2017-01-27T07:32:05.395Z,26.5
2017-01-27T07:34:10.214Z,26.5
2017-01-27T07:36:06.006Z,26.5
2017-01-27T07:38:06.062Z,26.5
2017-01-27T07:40:06.114Z,26.5
2017-01-27T07:42:05.821Z,26.6
2017-01-27T07:44:05.775Z,26.5
2017-01-27T07:46:05.501Z,26.5
2017-01-27T07:48:05.236Z,26.5
2017-01-27T07:50:06.109Z,26.5
2017-01-27T07:52:06.067Z,26.5
2017-01-27T07:54:05.805Z,26.5
2017-01-27T07:56:05.225Z,26.5
2017-01-27T07:58:05.140Z,26.5
2017-01-27T08:00:10.933Z,26.5
2017-01-27T08:02:06.146Z,26.5
2017-01-27T08:04:05.867Z,26.5
2017-01-27T08:06:05.807Z,26.4
2017-01-27T08:08:06.362Z,26.5
2017-01-27T08:10:05.463Z,26.5
2017-01-27T08:12:07.768Z,26.5
2017-01-27T08:14:05.822Z,26.5
2017-01-27T08:16:08.066Z,26.5
2017-01-27T08:18:06.014Z,26.5
2017-01-27T08:20:08.047Z,26.7
2017-01-27T08:22:05.829Z,26.5
2017-01-27T08:24:05.625Z,26.7
2017-01-27T08:26:05.693Z,26.7
2017-01-27T08:28:06.013Z,26.7
2017-01-27T08:30:07.835Z,26.7
2017-01-27T08:32:05.832Z,26.7
2017-01-27T08:34:05.603Z,26.7
2017-01-27T08:36:05.954Z,26.9
2017-01-27T08:38:06.112Z,26.7
2017-01-27T08:40:10.881Z,26.9
2017-01-27T08:42:05.519Z,26.7
2017-01-27T08:44:05.348Z,26.9
2017-01-27T08:46:05.061Z,27
2017-01-27T08:48:07.171Z,27
2017-01-27T08:50:08.060Z,27.1
2017-01-27T08:52:05.173Z,27.1
2017-01-27T08:54:05.405Z,27.1
2017-01-27T08:56:05.353Z,26.9
2017-01-27T08:58:05.833Z,27.1
2017-01-27T09:00:08.067Z,27.1
2017-01-27T09:02:06.035Z,27
2017-01-27T09:04:05.787Z,27.2
2017-01-27T09:06:08.052Z,27.1
2017-01-27T09:08:06.162Z,27.1
2017-01-27T09:10:05.928Z,27.1
2017-01-27T09:12:05.660Z,27.1
2017-01-27T09:14:10.837Z,27.1
2017-01-27T09:16:09.104Z,27.2
2017-01-27T09:18:08.071Z,27.3
2017-01-27T09:20:08.000Z,27.2
2017-01-27T09:22:05.265Z,27.2
2017-01-27T09:24:05.579Z,27.2
2017-01-27T09:26:05.624Z,27.2
2017-01-27T09:28:05.880Z,27.2
2017-01-27T09:30:05.995Z,27.2
2017-01-27T09:32:06.517Z,27.3
2017-01-27T09:34:05.253Z,27.2
2017-01-27T09:36:05.111Z,27.3
2017-01-27T09:38:06.140Z,27.2
2017-01-27T09:40:05.866Z,27.1
2017-01-27T09:42:05.626Z,27.1
2017-01-27T09:44:18.905Z,27.1
2017-01-27T09:46:08.455Z,27.1
2017-01-27T09:48:05.218Z,27.1
2017-01-27T09:50:06.208Z,27.1
2017-01-27T09:52:06.004Z,27.1
2017-01-27T09:54:08.232Z,27.1
2017-01-27T09:56:06.255Z,27.1
2017-01-27T09:58:05.131Z,27.1
2017-01-27T10:00:08.344Z,27
2017-01-27T10:02:08.494Z,27
2017-01-27T10:04:05.211Z,27
2017-01-27T10:06:07.437Z,27.1
2017-01-27T10:08:08.527Z,27.1
2017-01-27T10:10:05.896Z,27.1
2017-01-27T10:12:07.370Z,27.1
2017-01-27T10:14:08.717Z,27.1
2017-01-27T10:16:05.463Z,27
2017-01-27T10:18:05.740Z,27.1
2017-01-27T10:20:05.891Z,27.1
2017-01-27T10:22:12.721Z,27
2017-01-27T10:24:05.454Z,27
2017-01-27T10:26:05.348Z,27
2017-01-27T10:28:05.135Z,27.2
2017-01-27T10:30:07.898Z,27
2017-01-27T10:32:05.838Z,27
2017-01-27T10:34:05.813Z,27
2017-01-27T10:36:05.488Z,27
2017-01-27T10:38:13.009Z,27
2017-01-27T10:40:05.261Z,27
2017-01-27T10:42:05.997Z,27
2017-01-27T10:44:06.036Z,27
2017-01-27T10:46:07.833Z,27
2017-01-27T10:48:05.620Z,27
2017-01-27T10:50:05.646Z,27
2017-01-27T10:52:05.368Z,27
2017-01-27T10:54:05.131Z,27
2017-01-27T10:56:06.234Z,27
2017-01-27T10:58:05.516Z,27
2017-01-27T11:00:08.390Z,27
2017-01-27T11:02:05.238Z,27
2017-01-27T11:04:05.963Z,27.1
2017-01-27T11:06:05.995Z,26.9
2017-01-27T11:08:08.160Z,27.1
2017-01-27T11:10:05.508Z,26.9
2017-01-27T11:12:05.268Z,26.9
2017-01-27T11:14:11.328Z,26.9
2017-01-27T11:16:05.048Z,26.9
2017-01-27T11:18:05.146Z,26.9
2017-01-27T11:20:11.004Z,26.9
2017-01-27T11:22:05.874Z,26.9
2017-01-27T11:24:05.678Z,26.9
2017-01-27T11:26:05.584Z,26.9
2017-01-27T11:28:05.312Z,26.9
2017-01-27T11:30:05.189Z,26.9
2017-01-27T11:32:10.704Z,26.9
2017-01-27T11:34:08.526Z,26.9
2017-01-27T11:36:05.292Z,26.9
2017-01-27T11:38:06.322Z,26.9
2017-01-27T11:40:05.053Z,26.9
2017-01-27T11:42:08.275Z,26.9
2017-01-27T11:44:06.226Z,26.9
2017-01-27T11:46:05.576Z,26.9
2017-01-27T11:48:05.309Z,26.9
2017-01-27T11:50:05.342Z,27
2017-01-27T11:52:05.077Z,26.9
2017-01-27T11:54:06.059Z,26.9
2017-01-27T11:56:06.010Z,26.9
2017-01-27T11:58:05.219Z,26.9
2017-01-27T12:00:05.955Z,26.9
2017-01-27T12:02:06.039Z,26.9
2017-01-27T12:04:08.300Z,26.9
2017-01-27T12:06:05.991Z,26.9
2017-01-27T12:08:05.639Z,26.9
2017-01-27T12:10:06.079Z,26.9
2017-01-27T12:12:05.782Z,26.9
2017-01-27T12:14:05.347Z,26.9
2017-01-27T12:16:05.057Z,27
2017-01-27T12:18:05.963Z,26.9
2017-01-27T12:20:05.469Z,26.9
2017-01-27T12:22:05.232Z,27
2017-01-27T12:24:08.460Z,26.9
2017-01-27T12:26:05.553Z,27.1
2017-01-27T12:28:05.245Z,26.9
2017-01-27T12:30:05.966Z,27.1
2017-01-27T12:32:10.977Z,26.9
2017-01-27T12:34:10.709Z,27.1
2017-01-27T12:36:05.458Z,26.9
2017-01-27T12:38:05.522Z,27.1
2017-01-27T12:40:08.341Z,27.1
2017-01-27T12:42:08.162Z,27.1
2017-01-27T12:44:05.762Z,27
2017-01-27T12:46:07.562Z,27.1
2017-01-27T12:48:07.904Z,26.9
2017-01-27T12:50:05.975Z,26.9
2017-01-27T12:52:05.751Z,27.1
2017-01-27T12:54:05.756Z,27.1
2017-01-27T12:56:05.702Z,27.1
2017-01-27T12:58:10.779Z,27.1
2017-01-27T13:00:05.493Z,27.1
2017-01-27T13:02:07.875Z,27.2
2017-01-27T13:04:05.650Z,27.2
2017-01-27T13:06:15.486Z,27.1
2017-01-27T13:08:05.460Z,27.1
2017-01-27T13:10:05.718Z,27.1
2017-01-27T13:12:05.433Z,27.1
2017-01-27T13:14:08.548Z,27.1
2017-01-27T13:16:05.248Z,27.2
2017-01-27T13:18:05.190Z,27.1
2017-01-27T13:20:05.226Z,27.2
2017-01-27T13:22:05.920Z,27.1
2017-01-27T13:24:05.569Z,27.1
2017-01-27T13:26:06.128Z,27.1
2017-01-27T13:28:05.764Z,27.1
2017-01-27T13:30:06.658Z,27.2
2017-01-27T13:32:06.421Z,27.1
2017-01-27T13:34:10.238Z,27.1
2017-01-27T13:36:10.541Z,27.1
2017-01-27T13:38:05.553Z,27.1
2017-01-27T13:40:05.220Z,27.1
2017-01-27T13:42:05.925Z,27.2
2017-01-27T13:44:07.492Z,27.2
2017-01-27T13:46:07.872Z,27.2
2017-01-27T13:48:06.219Z,27.2
2017-01-27T13:50:06.547Z,27.1
2017-01-27T13:52:07.932Z,27.2
2017-01-27T13:54:07.892Z,27.2
2017-01-27T13:56:05.954Z,27.2
2017-01-27T13:58:05.199Z,27.2
2017-01-27T14:00:05.965Z,27.2
2017-01-27T14:02:08.849Z,27.1
2017-01-27T14:04:05.654Z,27.1
2017-01-27T14:06:05.390Z,27.2
2017-01-27T14:08:05.392Z,27.2
2017-01-27T14:10:05.108Z,27.2
2017-01-27T14:12:08.373Z,27.2
2017-01-27T14:14:05.225Z,27.2
2017-01-27T14:16:07.718Z,27.2
2017-01-27T14:18:08.297Z,27.1
2017-01-27T14:20:05.570Z,27.2
2017-01-27T14:22:05.303Z,27.1
2017-01-27T14:24:10.291Z,27.2
2017-01-27T14:26:10.995Z,27.2
2017-01-27T14:28:08.316Z,27.1
2017-01-27T14:30:07.631Z,27.1
2017-01-27T14:32:05.583Z,27.1
2017-01-27T14:34:05.674Z,27.1
2017-01-27T14:36:05.450Z,27.2
2017-01-27T14:38:05.989Z,27.2
2017-01-27T14:40:05.460Z,27.2
2017-01-27T14:42:07.826Z,27.2
2017-01-27T14:44:08.278Z,27.2
2017-01-27T14:46:06.003Z,27.2
2017-01-27T14:48:05.824Z,27.2
2017-01-27T14:50:05.913Z,27.2
2017-01-27T14:52:05.622Z,27.2
2017-01-27T14:54:05.334Z,27.2
2017-01-27T14:56:05.415Z,27.3
2017-01-27T14:58:05.148Z,27.3
2017-01-27T15:00:05.862Z,27.2
2017-01-27T15:02:05.750Z,27.2
2017-01-27T15:04:05.481Z,27.2
2017-01-27T15:06:05.387Z,27.3
2017-01-27T15:08:08.255Z,27.2
2017-01-27T15:10:08.477Z,27.2
2017-01-27T15:12:05.195Z,27
2017-01-27T15:14:06.169Z,27
2017-01-27T15:16:08.416Z,27.4
2017-01-27T15:18:05.337Z,27.3
2017-01-27T15:20:05.954Z,27.4
2017-01-27T15:22:05.879Z,27.5
2017-01-27T15:24:05.684Z,27.5
2017-01-27T15:26:05.787Z,27.5
2017-01-27T15:28:05.468Z,27.4
2017-01-27T15:30:05.164Z,27.4
2017-01-27T15:32:06.212Z,27.4
2017-01-27T15:34:05.899Z,27.4
2017-01-27T15:36:05.604Z,27.4
2017-01-27T15:38:05.750Z,27.5
2017-01-27T15:40:07.194Z,27.4
2017-01-27T15:42:05.371Z,27.4
2017-01-27T15:44:05.279Z,27.4
2017-01-27T15:46:06.024Z,27.4
2017-01-27T15:48:05.786Z,27.5
2017-01-27T15:50:05.864Z,27.5
2017-01-27T15:52:08.114Z,27.4
2017-01-27T15:54:11.035Z,27.4
2017-01-27T15:56:06.360Z,27.4
2017-01-27T15:58:05.071Z,27.4
2017-01-27T16:00:05.800Z,27.4
2017-01-27T16:02:06.023Z,27.4
2017-01-27T16:04:05.746Z,27.4
2017-01-27T16:06:05.459Z,27.4
2017-01-27T16:08:05.746Z,27.4
2017-01-27T16:10:05.885Z,27.4
2017-01-27T16:12:05.631Z,27.4
2017-01-27T16:14:05.679Z,27.4
2017-01-27T16:16:05.455Z,27.4
2017-01-27T16:18:06.111Z,27.4
2017-01-27T16:20:06.239Z,27.4
2017-01-27T16:22:05.963Z,27.4
2017-01-27T16:24:05.700Z,27.4
2017-01-27T16:26:05.770Z,27.4
2017-01-27T16:28:13.037Z,27.4
2017-01-27T16:30:05.439Z,27.4
2017-01-27T16:32:05.375Z,27.4
2017-01-27T16:34:05.169Z,27.4
2017-01-27T16:36:05.949Z,27.3
2017-01-27T16:38:05.873Z,27.4
2017-01-27T16:40:20.583Z,27.4
2017-01-27T16:42:05.700Z,27.5
2017-01-27T16:44:08.359Z,27.5
2017-01-27T16:46:12.852Z,27.5
2017-01-27T16:48:05.584Z,27.5
2017-01-27T16:50:08.044Z,27.5
2017-01-27T16:52:05.823Z,27.5
2017-01-27T16:54:10.633Z,27.5
2017-01-27T16:56:05.528Z,27.3
2017-01-27T16:58:08.010Z,27.5
2017-01-27T17:00:05.734Z,27.5
2017-01-27T17:02:10.866Z,27.3
2017-01-27T17:04:05.661Z,27.5
2017-01-27T17:06:05.465Z,27.4
2017-01-27T17:08:05.507Z,27.5
2017-01-27T17:10:05.209Z,27.3
2017-01-27T17:12:05.986Z,27.3
2017-01-27T17:14:06.090Z,27.3
2017-01-27T17:16:08.413Z,27.5
2017-01-27T17:18:05.414Z,27.5
2017-01-27T17:20:05.654Z,27.3
2017-01-27T17:22:05.520Z,27.3
2017-01-27T17:24:05.245Z,27.3
2017-01-27T17:26:06.451Z,27.5
2017-01-27T17:28:05.413Z,27.3
2017-01-27T17:30:05.991Z,27.5
2017-01-27T17:32:06.001Z,27.5
2017-01-27T17:34:08.193Z,27.3
2017-01-27T17:36:05.118Z,27.3
2017-01-27T17:38:06.093Z,27.3
2017-01-27T17:40:05.911Z,27.5
2017-01-27T17:42:05.629Z,27.3
2017-01-27T17:44:11.296Z,27.3
2017-01-27T17:46:06.172Z,27.3
2017-01-27T17:48:05.886Z,27.3
2017-01-27T17:50:06.967Z,27.3
2017-01-27T17:52:10.830Z,27.6
2017-01-27T17:54:05.564Z,27.4
2017-01-27T17:56:10.582Z,27.7
2017-01-27T17:58:06.004Z,27.7
2017-01-27T18:00:05.730Z,27.7
2017-01-27T18:02:05.838Z,27.7
2017-01-27T18:04:05.504Z,27.7
2017-01-27T18:06:05.221Z,27.8
2017-01-27T18:08:13.693Z,27.7
2017-01-27T18:10:05.410Z,27.8
2017-01-27T18:12:08.292Z,27.7
2017-01-27T18:14:05.768Z,27.7
2017-01-27T18:16:05.483Z,27.7
2017-01-27T18:18:05.555Z,27.7
2017-01-27T18:20:05.507Z,27.6
2017-01-27T18:22:05.225Z,27.7
2017-01-27T18:24:05.923Z,28
2017-01-27T18:26:08.535Z,28
2017-01-27T18:28:06.293Z,28
2017-01-27T18:30:08.500Z,27.8
2017-01-27T18:32:05.505Z,27.8
2017-01-27T18:34:05.578Z,28
2017-01-27T18:36:05.317Z,27.9
2017-01-27T18:38:07.898Z,27.9
2017-01-27T18:40:05.620Z,27.9
2017-01-27T18:42:05.347Z,28
2017-01-27T18:44:07.960Z,27.8
2017-01-27T18:46:05.653Z,28
2017-01-27T18:48:05.353Z,28
2017-01-27T18:50:07.926Z,28
2017-01-27T18:52:05.720Z,28
2017-01-27T18:54:05.765Z,27.9
2017-01-27T18:56:08.416Z,28
2017-01-27T18:58:05.102Z,28
2017-01-27T19:00:05.822Z,28.1
2017-01-27T19:02:05.886Z,28
2017-01-27T19:04:05.688Z,28.1
2017-01-27T19:06:05.695Z,28.1
2017-01-27T19:08:05.557Z,28
2017-01-27T19:10:05.268Z,28
2017-01-27T19:12:05.556Z,28.1
2017-01-27T19:14:05.408Z,28
2017-01-27T19:16:05.765Z,28
2017-01-27T19:18:05.687Z,28.1
2017-01-27T19:20:06.249Z,28.2
2017-01-27T19:22:05.178Z,28.4
2017-01-27T19:24:05.966Z,28.3
2017-01-27T19:26:11.097Z,28.3
2017-01-27T19:28:05.887Z,28.3
2017-01-27T19:30:05.170Z,28.3
2017-01-27T19:32:06.286Z,28.2
2017-01-27T19:34:06.044Z,28.4
2017-01-27T19:36:08.279Z,28.4
2017-01-27T19:38:06.379Z,28.4
2017-01-27T19:40:05.074Z,28.4
2017-01-27T19:42:05.750Z,28.3
2017-01-27T19:44:06.279Z,28.4
2017-01-27T19:46:11.063Z,28.5
2017-01-27T19:48:05.832Z,28.5
2017-01-27T19:50:05.711Z,28.4
2017-01-27T19:52:05.655Z,28.4
2017-01-27T19:54:05.726Z,28.7
2017-01-27T19:56:11.131Z,28.5
2017-01-27T19:58:05.319Z,28.4
2017-01-27T20:00:06.029Z,28.6
2017-01-27T20:02:06.091Z,28.6
2017-01-27T20:04:05.840Z,28.4
2017-01-27T20:06:10.724Z,28.4
2017-01-27T20:08:08.310Z,28.8
2017-01-27T20:10:08.737Z,28.8
2017-01-27T20:12:05.482Z,28.8
2017-01-27T20:14:06.021Z,28.7
2017-01-27T20:16:05.694Z,28.6
2017-01-27T20:18:05.166Z,28.6
2017-01-27T20:20:06.162Z,28.3
2017-01-27T20:22:05.906Z,28.4
2017-01-27T20:24:05.625Z,28.3
2017-01-27T20:26:08.265Z,28.3
2017-01-27T20:28:08.509Z,28.3
2017-01-27T20:30:05.270Z,28.3
2017-01-27T20:32:05.917Z,28.4
2017-01-27T20:34:05.764Z,28.3
2017-01-27T20:36:07.611Z,28.5
2017-01-27T20:38:05.851Z,28.5
2017-01-27T20:40:05.536Z,28.4
2017-01-27T20:42:10.633Z,28.4
2017-01-27T20:44:05.678Z,28.4
2017-01-27T20:46:10.203Z,28.4
2017-01-27T20:48:05.944Z,28.4
2017-01-27T20:50:06.012Z,28.9
2017-01-27T20:52:05.271Z,28.5
2017-01-27T20:54:08.557Z,28.6
2017-01-27T20:56:08.156Z,28.5
2017-01-27T20:58:06.128Z,28.5
2017-01-27T21:00:05.382Z,28.4
2017-01-27T21:02:05.362Z,28.4
2017-01-27T21:04:05.134Z,28.8
2017-01-27T21:06:08.413Z,28.6
2017-01-27T21:08:05.355Z,28.4
2017-01-27T21:10:05.045Z,28.6
2017-01-27T21:12:05.731Z,28.5
2017-01-27T21:14:05.630Z,28.6
2017-01-27T21:16:08.374Z,28.7
2017-01-27T21:18:07.813Z,28.7
2017-01-27T21:20:05.666Z,28.7
2017-01-27T21:22:07.913Z,28.8
2017-01-27T21:24:05.625Z,28.7
2017-01-27T21:26:10.719Z,28.9
2017-01-27T21:28:08.090Z,28.8
2017-01-27T21:30:06.014Z,28.8
2017-01-27T21:32:06.039Z,29
2017-01-27T21:34:05.715Z,28.7
2017-01-27T21:36:07.977Z,28.7
2017-01-27T21:38:05.994Z,28.7
2017-01-27T21:40:05.765Z,28.7
2017-01-27T21:42:05.508Z,28.7
2017-01-27T21:44:05.528Z,28.7
2017-01-27T21:46:05.570Z,28.5
2017-01-27T21:48:05.269Z,28.5
2017-01-27T21:50:06.139Z,28.7
2017-01-27T21:52:10.527Z,28.5
2017-01-27T21:54:05.295Z,28.7
2017-01-27T21:56:08.793Z,28.7
2017-01-27T21:58:10.778Z,28.5
2017-01-27T22:00:06.032Z,28.5
2017-01-27T22:02:06.297Z,28.5
2017-01-27T22:04:08.504Z,28.5
2017-01-27T22:06:05.174Z,28.5
2017-01-27T22:08:06.490Z,28.7
2017-01-27T22:10:05.205Z,28.5
2017-01-27T22:12:08.463Z,28.7
2017-01-27T22:14:05.524Z,28.5
2017-01-27T22:16:05.461Z,28.5
2017-01-27T22:18:08.135Z,28.5
2017-01-27T22:20:06.174Z,28.5
2017-01-27T22:22:05.126Z,28.5
2017-01-27T22:24:05.091Z,28.5
2017-01-27T22:26:08.615Z,28.5
2017-01-27T22:28:05.558Z,28.5
2017-01-27T22:30:10.482Z,28.5
2017-01-27T22:32:05.623Z,28.5
2017-01-27T22:34:06.150Z,28.5
2017-01-27T22:36:05.853Z,28.5
2017-01-27T22:38:06.061Z,28.5
2017-01-27T22:40:05.843Z,28.5
2017-01-27T22:42:05.627Z,28.4
2017-01-27T22:44:05.594Z,28.4
2017-01-27T22:46:05.064Z,28.5
2017-01-27T22:48:05.326Z,28.4
2017-01-27T22:50:05.900Z,28.5
2017-01-27T22:52:05.256Z,28.4
2017-01-27T22:54:05.570Z,28.4
2017-01-27T22:56:06.838Z,28.4
2017-01-27T22:58:05.693Z,28.4
2017-01-27T23:00:05.645Z,28.4
2017-01-27T23:02:05.736Z,28.5
2017-01-27T23:04:07.997Z,28.4
2017-01-27T23:06:06.056Z,28.4
2017-01-27T23:08:18.555Z,28.4
2017-01-27T23:10:07.882Z,28.4
2017-01-27T23:12:05.256Z,28.4
2017-01-27T23:14:06.316Z,28.4
2017-01-27T23:16:05.541Z,28.4
2017-01-27T23:18:05.774Z,28.4
2017-01-27T23:20:10.421Z,28.3
2017-01-27T23:22:05.504Z,28.4
2017-01-27T23:24:05.369Z,28.4
2017-01-27T23:26:05.484Z,28.4
2017-01-27T23:28:07.784Z,28.4
2017-01-27T23:30:05.674Z,28.4
2017-01-27T23:32:05.723Z,28.4
2017-01-27T23:34:05.546Z,28.4
2017-01-27T23:36:07.924Z,28.4
2017-01-27T23:38:05.970Z,28.4
2017-01-27T23:40:05.770Z,28.4
2017-01-27T23:42:05.143Z,28.4
2017-01-27T23:44:08.717Z,28.3
2017-01-27T23:46:13.074Z,28.4
2017-01-27T23:48:05.870Z,28.4
2017-01-27T23:50:06.361Z,28.4
2017-01-27T23:52:05.084Z,28.4
2017-01-27T23:54:08.545Z,28.3
2017-01-27T23:56:08.814Z,28.3
2017-01-27T23:58:05.947Z,28.3
